createdAt,value
2018-05-13T00:00:08.801Z,90.2
2018-05-13T00:01:08.046Z,90.1
2018-05-13T00:02:07.368Z,89.9
2018-05-13T00:03:06.693Z,89.8
2018-05-13T00:04:06.204Z,89.7
2018-05-13T00:05:05.425Z,89.7
2018-05-13T00:06:04.640Z,90.4
2018-05-13T00:07:03.647Z,90.1
2018-05-13T00:08:03.074Z,90.2
2018-05-13T00:08:33.332Z,90.2
2018-05-13T00:10:01.629Z,90.1
2018-05-13T00:11:01.239Z,90.4
2018-05-13T00:12:00.363Z,90.5
2018-05-13T00:12:59.687Z,90.5
2018-05-13T00:13:58.793Z,90.5
2018-05-13T00:14:58.227Z,90.4
2018-05-13T00:15:57.447Z,90.3
2018-05-13T00:16:56.771Z,90.2
2018-05-13T00:17:55.999Z,90.3
2018-05-13T00:18:55.316Z,90.4
2018-05-13T00:19:54.640Z,90.4
2018-05-13T00:20:53.970Z,90.7
2018-05-13T00:21:53.288Z,90.7
2018-05-13T00:22:52.604Z,90.6
2018-05-13T00:24:51.210Z,90.6
2018-05-13T00:25:50.447Z,90.6
2018-05-13T00:27:49.067Z,90.6
2018-05-13T00:28:47.988Z,90.6
2018-05-13T00:29:47.311Z,91.2
2018-05-13T00:30:46.736Z,91.2
2018-05-13T00:31:45.747Z,91.4
2018-05-13T00:32:45.182Z,91.3
2018-05-13T00:33:44.404Z,91.2
2018-05-13T00:34:43.725Z,91.1
2018-05-13T00:35:43.339Z,91.4
2018-05-13T00:36:42.661Z,91.3
2018-05-13T00:37:41.975Z,91.5
2018-05-13T00:38:41.083Z,91.4
2018-05-13T00:39:40.196Z,91.5
2018-05-13T00:40:39.521Z,91.5
2018-05-13T00:41:09.769Z,91.5
2018-05-13T00:42:38.389Z,92
2018-05-13T00:44:36.603Z,91.9
2018-05-13T00:45:36.216Z,92.1
2018-05-13T00:46:35.427Z,92.1
2018-05-13T00:47:34.756Z,92
2018-05-13T00:48:33.970Z,91.9
2018-05-13T00:49:33.292Z,92
2018-05-13T00:50:32.519Z,92.1
2018-05-13T00:51:31.412Z,92.4
2018-05-13T00:52:01.939Z,92.4
2018-05-13T00:53:30.244Z,92.2
2018-05-13T00:54:29.354Z,92.2
2018-05-13T00:56:27.852Z,92.6
2018-05-13T00:57:27.285Z,92.5
2018-05-13T00:58:26.732Z,92.4
2018-05-13T00:59:26.157Z,92.5
2018-05-13T01:01:24.161Z,92.5
2018-05-13T01:02:23.990Z,92.7
2018-05-13T01:02:54.623Z,92.7
2018-05-13T01:03:25.273Z,92.6
2018-05-13T01:04:22.481Z,92.6
2018-05-13T01:05:21.812Z,92.5
2018-05-13T01:06:21.142Z,92.7
2018-05-13T01:07:19.865Z,92.7
2018-05-13T01:08:19.707Z,92.7
2018-05-13T01:09:18.526Z,93.2
2018-05-13T01:10:18.246Z,93.2
2018-05-13T01:11:17.354Z,93.1
2018-05-13T01:12:16.460Z,93.2
2018-05-13T01:13:15.888Z,93.1
2018-05-13T01:14:15.108Z,93.2
2018-05-13T01:15:14.318Z,93.1
2018-05-13T01:16:13.752Z,93.1
2018-05-13T01:17:13.072Z,93
2018-05-13T01:18:12.082Z,93.2
2018-05-13T01:19:11.580Z,93.4
2018-05-13T01:20:10.799Z,93.2
2018-05-13T01:21:10.222Z,93.6
2018-05-13T01:22:09.434Z,93.5
2018-05-13T01:23:08.369Z,93.6
2018-05-13T01:24:07.803Z,93.4
2018-05-13T01:25:07.316Z,93.5
2018-05-13T01:26:06.254Z,93.5
2018-05-13T01:27:05.760Z,93.4
2018-05-13T01:28:05.096Z,93.3
2018-05-13T01:29:03.985Z,93.4
2018-05-13T01:30:03.195Z,93.4
2018-05-13T01:31:02.695Z,93.5
2018-05-13T01:32:02.030Z,93.7
2018-05-13T01:33:01.539Z,93.6
2018-05-13T01:34:00.261Z,93.6
2018-05-13T01:34:59.881Z,93.6
2018-05-13T01:35:59.207Z,93.6
2018-05-13T01:36:58.428Z,93.8
2018-05-13T01:37:57.852Z,94
2018-05-13T01:38:57.171Z,94.1
2018-05-13T01:39:55.987Z,94
2018-05-13T01:40:55.419Z,94
2018-05-13T01:41:54.751Z,94
2018-05-13T01:42:54.077Z,94.1
2018-05-13T01:43:53.530Z,94
2018-05-13T01:44:52.460Z,94
2018-05-13T01:45:51.789Z,94
2018-05-13T01:46:51.006Z,93.9
2018-05-13T01:47:50.222Z,93.9
2018-05-13T01:48:49.446Z,94
2018-05-13T01:49:49.169Z,94.1
2018-05-13T01:50:47.993Z,94
2018-05-13T01:51:47.512Z,93.9
2018-05-13T01:52:46.742Z,93.9
2018-05-13T01:53:46.076Z,94.1
2018-05-13T01:54:45.399Z,94.2
2018-05-13T01:55:44.344Z,94
2018-05-13T01:56:43.668Z,94
2018-05-13T01:57:42.991Z,94
2018-05-13T01:58:13.235Z,94
2018-05-13T01:58:43.871Z,93.9
2018-05-13T01:59:41.470Z,94
2018-05-13T02:00:40.902Z,94
2018-05-13T02:01:40.119Z,94.2
2018-05-13T02:02:39.334Z,94.2
2018-05-13T02:03:38.445Z,94.2
2018-05-13T02:04:37.668Z,94.1
2018-05-13T02:05:37.005Z,94
2018-05-13T02:06:36.337Z,94
2018-05-13T02:07:35.666Z,93.9
2018-05-13T02:08:34.987Z,94.2
2018-05-13T02:09:34.226Z,94.3
2018-05-13T02:10:33.224Z,94.3
2018-05-13T02:11:32.946Z,94.3
2018-05-13T02:12:32.268Z,94.4
2018-05-13T02:13:31.153Z,94.4
2018-05-13T02:14:30.878Z,94.4
2018-05-13T02:15:30.100Z,94.3
2018-05-13T02:16:29.420Z,94.2
2018-05-13T02:18:27.527Z,94.2
2018-05-13T02:19:26.740Z,94.2
2018-05-13T02:20:26.072Z,94.2
2018-05-13T02:21:25.392Z,94.2
2018-05-13T02:22:24.716Z,94.2
2018-05-13T02:23:24.058Z,94.3
2018-05-13T02:24:23.380Z,94.5
2018-05-13T02:25:22.681Z,94.5
2018-05-13T02:26:21.898Z,94.4
2018-05-13T02:27:20.918Z,94.4
2018-05-13T02:28:20.022Z,94.4
2018-05-13T02:28:50.670Z,94.4
2018-05-13T02:29:21.310Z,94.4
2018-05-13T02:29:51.942Z,94.4
2018-05-13T02:30:22.188Z,94.4
2018-05-13T02:30:52.826Z,94.4
2018-05-13T02:32:17.231Z,94.3
2018-05-13T02:33:16.962Z,94.3
2018-05-13T02:34:15.802Z,94.3
2018-05-13T02:35:15.145Z,94.3
2018-05-13T02:36:14.483Z,94.3
2018-05-13T02:37:13.804Z,94.3
2018-05-13T02:38:13.147Z,94.3
2018-05-13T02:39:12.363Z,94.3
2018-05-13T02:39:42.898Z,94.3
2018-05-13T02:40:13.452Z,94.3
2018-05-13T02:40:43.878Z,94.3
2018-05-13T02:41:14.633Z,94.2
2018-05-13T02:41:45.285Z,94.2
2018-05-13T02:43:09.282Z,94.3
2018-05-13T02:44:08.612Z,94.5
2018-05-13T02:45:07.619Z,94.5
2018-05-13T02:46:06.961Z,94.5
2018-05-13T02:47:06.282Z,94.4
2018-05-13T02:48:05.614Z,94.5
2018-05-13T02:49:04.947Z,94.5
2018-05-13T02:50:04.174Z,94.5
2018-05-13T02:51:03.520Z,94.5
2018-05-13T02:52:02.767Z,94.7
2018-05-13T02:53:01.999Z,94.7
2018-05-13T02:55:00.505Z,94.8
2018-05-13T02:55:59.839Z,94.9
2018-05-13T02:56:59.268Z,94.8
2018-05-13T02:57:58.088Z,94.8
2018-05-13T02:58:57.511Z,94.8
2018-05-13T02:59:56.734Z,94.7
2018-05-13T03:00:56.352Z,94.7
2018-05-13T03:01:55.291Z,94.6
2018-05-13T03:02:54.612Z,94.6
2018-05-13T03:03:53.939Z,94.6
2018-05-13T03:04:53.255Z,94.6
2018-05-13T03:06:51.459Z,94.8
2018-05-13T03:07:51.184Z,94.7
2018-05-13T03:08:50.019Z,95
2018-05-13T03:09:49.448Z,94.9
2018-05-13T03:10:48.665Z,94.9
2018-05-13T03:12:47.376Z,95.2
2018-05-13T03:13:46.595Z,95
2018-05-13T03:14:46.024Z,95
2018-05-13T03:15:45.232Z,95
2018-05-13T03:16:44.451Z,94.9
2018-05-13T03:17:43.767Z,94.9
2018-05-13T03:18:42.700Z,94.9
2018-05-13T03:19:42.023Z,94.9
2018-05-13T03:20:41.230Z,95
2018-05-13T03:21:40.554Z,95
2018-05-13T03:22:39.990Z,95
2018-05-13T03:23:39.197Z,95
2018-05-13T03:24:38.638Z,94.9
2018-05-13T03:25:37.356Z,94.9
2018-05-13T03:26:37.072Z,94.9
2018-05-13T03:27:36.005Z,94.9
2018-05-13T03:28:35.614Z,94.9
2018-05-13T03:30:33.826Z,95
2018-05-13T03:31:33.040Z,95.1
2018-05-13T03:32:32.788Z,95.1
2018-05-13T03:33:31.608Z,95.1
2018-05-13T03:34:31.108Z,95
2018-05-13T03:35:30.325Z,95.1
2018-05-13T03:36:29.654Z,95.1
2018-05-13T03:37:28.752Z,95.4
2018-05-13T03:38:27.850Z,95.3
2018-05-13T03:39:27.064Z,95.2
2018-05-13T03:40:26.280Z,95.2
2018-05-13T03:43:24.362Z,95.3
2018-05-13T03:44:23.785Z,95.3
2018-05-13T03:45:22.723Z,95.4
2018-05-13T03:46:22.045Z,95.5
2018-05-13T03:47:21.459Z,95.7
2018-05-13T03:48:20.579Z,95.6
2018-05-13T03:49:19.782Z,95.5
2018-05-13T03:50:19.283Z,95.4
2018-05-13T03:51:18.595Z,95.4
2018-05-13T03:52:17.799Z,95.4
2018-05-13T03:53:17.131Z,95.4
2018-05-13T03:54:16.452Z,95.5
2018-05-13T03:55:15.697Z,95.5
2018-05-13T03:56:15.010Z,95.6
2018-05-13T03:57:13.937Z,95.6
2018-05-13T03:58:13.037Z,95.6
2018-05-13T03:59:12.373Z,95.7
2018-05-13T04:00:11.678Z,95.8
2018-05-13T04:01:10.998Z,95.7
2018-05-13T04:02:10.313Z,95.7
2018-05-13T04:03:09.414Z,95.9
2018-05-13T04:04:09.019Z,95.8
2018-05-13T04:06:07.175Z,95.8
2018-05-13T04:07:06.495Z,95.8
2018-05-13T04:07:36.623Z,95.8
2018-05-13T04:08:07.256Z,95.8
2018-05-13T04:08:37.792Z,95.8
2018-05-13T04:10:04.299Z,96
2018-05-13T04:11:03.396Z,96.1
2018-05-13T04:12:03.223Z,96
2018-05-13T04:13:02.317Z,96.1
2018-05-13T04:14:01.631Z,96
2018-05-13T04:15:00.839Z,96
2018-05-13T04:16:00.056Z,96.2
2018-05-13T04:16:59.263Z,96.1
2018-05-13T04:17:29.390Z,96.1
2018-05-13T04:17:59.797Z,96.1
2018-05-13T04:18:30.429Z,96.1
2018-05-13T04:19:01.070Z,96.1
2018-05-13T04:19:31.604Z,96.1
2018-05-13T04:20:56.191Z,96.2
2018-05-13T04:22:54.902Z,96.1
2018-05-13T04:23:54.026Z,96.1
2018-05-13T04:24:53.242Z,96
2018-05-13T04:25:52.666Z,96
2018-05-13T04:26:52.106Z,96.1
2018-05-13T04:27:51.029Z,96
2018-05-13T04:28:50.467Z,96.1
2018-05-13T04:29:20.994Z,96.1
2018-05-13T04:29:51.402Z,96.1
2018-05-13T04:30:21.921Z,96.1
2018-05-13T04:31:48.098Z,96.2
2018-05-13T04:32:47.200Z,96.2
2018-05-13T04:33:46.807Z,96.2
2018-05-13T04:34:46.136Z,96.2
2018-05-13T04:35:45.059Z,96.2
2018-05-13T04:37:43.774Z,96.1
2018-05-13T04:38:43.205Z,96.1
2018-05-13T04:39:42.130Z,96.1
2018-05-13T04:40:41.445Z,96.1
2018-05-13T04:41:40.763Z,96
2018-05-13T04:42:40.082Z,96
2018-05-13T04:43:39.399Z,95.9
2018-05-13T04:44:38.713Z,95.9
2018-05-13T04:46:37.204Z,95.9
2018-05-13T04:47:36.638Z,95.8
2018-05-13T04:48:35.742Z,95.8
2018-05-13T04:49:06.049Z,95.8
2018-05-13T04:50:34.460Z,95.7
2018-05-13T04:51:33.284Z,95.6
2018-05-13T04:53:31.877Z,95.6
2018-05-13T04:54:31.099Z,95.5
2018-05-13T04:55:30.330Z,95.5
2018-05-13T04:56:30.045Z,95.5
2018-05-13T04:57:29.256Z,95.4
2018-05-13T04:58:28.571Z,95.3
2018-05-13T04:59:27.389Z,95.3
2018-05-13T04:59:58.021Z,95.3
2018-05-13T05:00:28.252Z,95.3
2018-05-13T05:00:58.492Z,95.3
2018-05-13T05:02:25.382Z,95.3
2018-05-13T05:03:24.611Z,95.3
2018-05-13T05:04:23.940Z,95.3
2018-05-13T05:05:23.178Z,95.3
2018-05-13T05:06:22.281Z,95.4
2018-05-13T05:07:21.899Z,95.2
2018-05-13T05:08:21.247Z,95.2
2018-05-13T05:09:20.472Z,95.2
2018-05-13T05:10:19.371Z,95.2
2018-05-13T05:10:49.786Z,95.2
2018-05-13T05:12:18.301Z,95.1
2018-05-13T05:13:17.401Z,95
2018-05-13T05:15:16.114Z,95
2018-05-13T05:16:15.127Z,95
2018-05-13T05:17:14.449Z,94.9
2018-05-13T05:18:13.656Z,95
2018-05-13T05:19:12.969Z,95
2018-05-13T05:20:12.281Z,94.9
2018-05-13T05:21:11.487Z,94.9
2018-05-13T05:22:10.804Z,94.9
2018-05-13T05:23:10.018Z,94.8
2018-05-13T05:24:09.449Z,94.8
2018-05-13T05:25:08.770Z,94.8
2018-05-13T05:26:07.977Z,94.7
2018-05-13T05:27:07.360Z,94.7
2018-05-13T05:28:06.574Z,94.7
2018-05-13T05:29:05.910Z,94.7
2018-05-13T05:30:05.222Z,94.6
2018-05-13T05:31:04.145Z,94.6
2018-05-13T05:32:03.766Z,94.5
2018-05-13T05:33:02.569Z,94.5
2018-05-13T05:34:02.408Z,94.5
2018-05-13T05:35:01.610Z,94.5
2018-05-13T05:36:00.539Z,94.5
2018-05-13T05:36:59.746Z,94.4
2018-05-13T05:37:59.078Z,94.3
2018-05-13T05:38:58.396Z,94.2
2018-05-13T05:39:57.892Z,94.2
2018-05-13T05:40:57.096Z,94.1
2018-05-13T05:41:56.307Z,93.9
2018-05-13T05:42:55.513Z,94
2018-05-13T05:43:54.732Z,93.9
2018-05-13T05:44:54.041Z,93.6
2018-05-13T05:45:53.753Z,93.6
2018-05-13T05:46:52.681Z,93.5
2018-05-13T05:47:52.024Z,93.3
2018-05-13T05:48:51.461Z,93
2018-05-13T05:49:50.888Z,93.1
2018-05-13T05:50:50.209Z,93.1
2018-05-13T05:51:49.487Z,93.1
2018-05-13T05:52:48.298Z,93
2018-05-13T05:53:47.508Z,93.1
2018-05-13T05:55:46.606Z,93
2018-05-13T05:56:16.861Z,93
2018-05-13T05:56:47.494Z,93
2018-05-13T05:57:18.015Z,93
2018-05-13T05:57:48.424Z,93
2018-05-13T05:58:18.549Z,93
2018-05-13T05:59:43.536Z,92.9
2018-05-13T06:00:42.965Z,92.9
2018-05-13T06:01:42.276Z,92.9
2018-05-13T06:02:41.213Z,92.8
2018-05-13T06:03:40.654Z,92.8
2018-05-13T06:04:39.864Z,92.8
2018-05-13T06:05:39.181Z,92.6
2018-05-13T06:06:09.424Z,92.6
2018-05-13T06:06:39.671Z,92.5
2018-05-13T06:07:10.095Z,92.5
2018-05-13T06:07:40.324Z,92.7
2018-05-13T06:08:10.747Z,92.7
2018-05-13T06:08:41.381Z,92.6
2018-05-13T06:09:12.011Z,92.6
2018-05-13T06:10:35.882Z,92.4
2018-05-13T06:12:33.976Z,92.2
2018-05-13T06:13:33.805Z,92.2
2018-05-13T06:14:32.630Z,92.1
2018-05-13T06:15:31.947Z,92.1
2018-05-13T06:16:31.155Z,92
2018-05-13T06:17:30.584Z,91.8
2018-05-13T06:18:29.900Z,91.7
2018-05-13T06:19:29.108Z,91.6
2018-05-13T06:19:59.525Z,91.6
2018-05-13T06:21:28.147Z,91.3
2018-05-13T06:22:27.354Z,91.1
2018-05-13T06:23:26.282Z,90.9
2018-05-13T06:24:25.592Z,90.8
2018-05-13T06:25:25.301Z,90.5
2018-05-13T06:26:24.613Z,90.1
2018-05-13T06:26:55.063Z,90.1
2018-05-13T06:27:25.594Z,89.9
2018-05-13T06:28:22.901Z,89.4
2018-05-13T06:29:22.584Z,89
2018-05-13T06:30:21.325Z,88.6
2018-05-13T06:31:20.747Z,88.2
2018-05-13T06:32:19.963Z,88.1
2018-05-13T06:33:19.284Z,87.8
2018-05-13T06:34:18.625Z,87.7
2018-05-13T06:35:17.946Z,87
2018-05-13T06:36:17.378Z,87.1
2018-05-13T06:37:16.710Z,87.1
2018-05-13T06:37:47.337Z,87.1
2018-05-13T06:38:17.859Z,86.9
2018-05-13T06:38:48.104Z,86.9
2018-05-13T06:39:18.734Z,86.3
2018-05-13T06:39:49.366Z,86.3
2018-05-13T06:41:13.963Z,86.4
2018-05-13T06:42:13.072Z,85.7
2018-05-13T06:43:12.390Z,85.8
2018-05-13T06:44:11.827Z,85.9
2018-05-13T06:45:11.424Z,85.5
2018-05-13T06:46:10.477Z,85.6
2018-05-13T06:47:09.686Z,85.2
2018-05-13T06:48:08.891Z,85
2018-05-13T06:48:39.421Z,85
2018-05-13T06:49:10.165Z,84.5
2018-05-13T06:49:40.581Z,84.5
2018-05-13T06:50:11.206Z,84.7
2018-05-13T06:50:41.837Z,84.7
2018-05-13T06:52:06.322Z,84.1
2018-05-13T06:53:05.348Z,83.8
2018-05-13T06:55:03.954Z,83.8
2018-05-13T06:56:03.506Z,83.7
2018-05-13T06:57:02.611Z,83.8
2018-05-13T06:58:02.050Z,83.7
2018-05-13T06:59:01.168Z,83.6
2018-05-13T07:00:00.790Z,83.8
2018-05-13T07:01:00.125Z,82.1
2018-05-13T07:01:30.361Z,82.1
2018-05-13T07:02:00.998Z,82.3
2018-05-13T07:02:58.696Z,82.3
2018-05-13T07:03:57.917Z,82.1
2018-05-13T07:04:57.232Z,82
2018-05-13T07:05:56.440Z,82.1
2018-05-13T07:06:55.651Z,81.2
2018-05-13T07:07:54.985Z,81.1
2018-05-13T07:08:54.379Z,80.9
2018-05-13T07:09:54.100Z,80.7
2018-05-13T07:11:52.596Z,80.4
2018-05-13T07:13:51.312Z,79.7
2018-05-13T07:14:50.234Z,79.9
2018-05-13T07:15:49.553Z,79.1
2018-05-13T07:16:49.168Z,79.4
2018-05-13T07:17:48.373Z,79.4
2018-05-13T07:18:47.806Z,79.4
2018-05-13T07:19:47.135Z,79.3
2018-05-13T07:21:45.622Z,78.7
2018-05-13T07:22:44.933Z,78.9
2018-05-13T07:23:44.153Z,78.9
2018-05-13T07:24:43.578Z,78.2
2018-05-13T07:25:42.792Z,78.2
2018-05-13T07:26:42.238Z,77.3
2018-05-13T07:27:41.553Z,76.8
2018-05-13T07:28:41.156Z,76.9
2018-05-13T07:29:40.086Z,76.3
2018-05-13T07:30:39.542Z,77.1
2018-05-13T07:31:38.972Z,76.9
2018-05-13T07:32:38.291Z,76.3
2018-05-13T07:33:37.498Z,76.2
2018-05-13T07:34:37.219Z,76.3
2018-05-13T07:35:36.537Z,75.7
2018-05-13T07:36:35.748Z,75.3
2018-05-13T07:37:35.058Z,74.9
2018-05-13T07:38:34.277Z,75.1
2018-05-13T07:39:33.705Z,75.1
2018-05-13T07:40:33.136Z,74.2
2018-05-13T07:41:32.346Z,74.9
2018-05-13T07:43:31.294Z,74.2
2018-05-13T07:44:30.533Z,73.8
2018-05-13T07:45:29.739Z,73.8
2018-05-13T07:46:28.738Z,73.5
2018-05-13T07:46:59.476Z,73.5
2018-05-13T07:47:30.068Z,73.2
2018-05-13T07:48:00.728Z,73.2
2018-05-13T07:49:27.121Z,73.8
2018-05-13T07:50:26.572Z,73.3
2018-05-13T07:51:25.896Z,73.9
2018-05-13T07:52:25.223Z,73.7
2018-05-13T07:53:24.155Z,73.7
2018-05-13T07:54:23.589Z,72.9
2018-05-13T07:55:23.111Z,72.5
2018-05-13T07:56:22.441Z,72.6
2018-05-13T07:57:21.766Z,72.6
2018-05-13T07:57:52.659Z,72.6
2018-05-13T07:58:22.971Z,72.5
2018-05-13T07:58:53.492Z,72.5
2018-05-13T08:00:19.989Z,72.5
2018-05-13T08:01:19.205Z,71.7
2018-05-13T08:02:18.409Z,71.4
2018-05-13T08:03:17.516Z,71.2
2018-05-13T08:04:17.224Z,71.1
2018-05-13T08:05:16.547Z,71.1
2018-05-13T08:06:16.075Z,70.5
2018-05-13T08:07:15.213Z,70.4
2018-05-13T08:08:14.527Z,70.7
2018-05-13T08:09:13.738Z,70.6
2018-05-13T08:10:13.562Z,69.7
2018-05-13T08:11:12.663Z,69.1
2018-05-13T08:12:11.976Z,69.7
2018-05-13T08:13:11.076Z,68.8
2018-05-13T08:14:10.744Z,68.8
2018-05-13T08:15:09.856Z,67.7
2018-05-13T08:16:09.288Z,68.7
2018-05-13T08:16:39.975Z,68.7
2018-05-13T08:17:10.397Z,67.4
2018-05-13T08:17:40.918Z,67.4
2018-05-13T08:19:07.306Z,67.5
2018-05-13T08:20:07.179Z,67.4
2018-05-13T08:21:05.941Z,67.3
2018-05-13T08:22:05.824Z,67.6
2018-05-13T08:23:05.038Z,66.5
2018-05-13T08:24:04.245Z,67
2018-05-13T08:25:03.460Z,66.7
2018-05-13T08:26:03.299Z,64.2
2018-05-13T08:27:02.518Z,66.3
2018-05-13T08:27:33.039Z,66.3
2018-05-13T08:28:03.686Z,66
2018-05-13T08:28:34.219Z,66
2018-05-13T08:29:04.751Z,65.2
2018-05-13T08:29:35.170Z,65.2
2018-05-13T08:30:05.810Z,65.9
2018-05-13T08:30:36.335Z,65.9
2018-05-13T08:31:06.943Z,65.4
2018-05-13T08:31:37.188Z,65.4
2018-05-13T08:32:58.658Z,65.3
2018-05-13T08:33:57.758Z,65.2
2018-05-13T08:34:57.077Z,66.1
2018-05-13T08:35:56.895Z,65.1
2018-05-13T08:36:56.226Z,64.3
2018-05-13T08:37:55.549Z,64.9
2018-05-13T08:38:54.870Z,64.5
2018-05-13T08:39:54.076Z,65.4
2018-05-13T08:40:24.280Z,65.4
2018-05-13T08:40:54.586Z,65.2
2018-05-13T08:41:24.712Z,65.2
2018-05-13T08:41:55.280Z,65
2018-05-13T08:42:25.340Z,65
2018-05-13T08:42:55.863Z,65.3
2018-05-13T08:44:50.942Z,64.4
2018-05-13T08:45:50.371Z,64.3
2018-05-13T08:46:49.985Z,64.4
2018-05-13T08:47:49.080Z,64.6
2018-05-13T08:48:48.505Z,64.5
2018-05-13T08:49:47.925Z,64.3
2018-05-13T08:50:47.254Z,64.1
2018-05-13T08:51:46.571Z,64.1
2018-05-13T08:52:45.779Z,63.4
2018-05-13T08:53:45.723Z,62.8
2018-05-13T08:54:45.056Z,62.5
2018-05-13T08:55:44.483Z,62.6
2018-05-13T08:56:43.310Z,63.1
2018-05-13T08:57:43.207Z,62.9
2018-05-13T08:58:42.493Z,61.6
2018-05-13T08:59:42.225Z,62.5
2018-05-13T09:00:12.643Z,62.5
2018-05-13T09:01:40.538Z,62
2018-05-13T09:02:39.968Z,61.4
2018-05-13T09:03:39.456Z,62.1
2018-05-13T09:04:38.621Z,61.7
2018-05-13T09:05:38.341Z,62.3
2018-05-13T09:06:37.559Z,61.3
2018-05-13T09:07:36.791Z,61.1
2018-05-13T09:08:36.262Z,61.6
2018-05-13T09:09:35.686Z,58.9
2018-05-13T09:10:35.109Z,59.3
2018-05-13T09:11:05.631Z,59.3
2018-05-13T09:11:36.115Z,59
2018-05-13T09:12:06.641Z,59
2018-05-13T09:12:36.879Z,59.1
2018-05-13T09:13:33.352Z,59.4
2018-05-13T09:14:32.662Z,58.9
2018-05-13T09:15:31.992Z,58.3
2018-05-13T09:17:30.695Z,58.9
2018-05-13T09:18:30.118Z,57.4
2018-05-13T09:19:29.625Z,57.2
2018-05-13T09:20:29.199Z,57.5
2018-05-13T09:21:28.488Z,57.7
2018-05-13T09:22:27.720Z,55.6
2018-05-13T09:23:27.154Z,56.2
2018-05-13T09:24:26.661Z,56.4
2018-05-13T09:25:26.083Z,56.2
2018-05-13T09:26:25.300Z,56.6
2018-05-13T09:28:24.005Z,56
2018-05-13T09:29:23.321Z,54.3
2018-05-13T09:30:23.254Z,53
2018-05-13T09:31:22.573Z,52.9
2018-05-13T09:32:21.888Z,52
2018-05-13T09:33:21.099Z,52
2018-05-13T09:34:20.767Z,51.6
2018-05-13T09:35:20.096Z,51.4
2018-05-13T09:36:19.420Z,51.5
2018-05-13T09:37:18.857Z,51.9
2018-05-13T09:37:49.389Z,51.9
2018-05-13T09:39:17.794Z,51.6
2018-05-13T09:40:17.091Z,52
2018-05-13T09:41:16.405Z,52
2018-05-13T09:42:15.731Z,52.3
2018-05-13T09:44:14.945Z,52.5
2018-05-13T09:45:14.277Z,51.7
2018-05-13T09:46:13.496Z,52.2
2018-05-13T09:47:13.104Z,52.2
2018-05-13T09:48:12.530Z,51.9
2018-05-13T09:49:11.739Z,52.1
2018-05-13T09:50:10.956Z,52.2
2018-05-13T09:51:10.557Z,52
2018-05-13T09:52:09.780Z,52.1
2018-05-13T09:53:09.494Z,52.4
2018-05-13T09:54:08.933Z,52
2018-05-13T09:55:08.436Z,53.3
2018-05-13T09:56:07.646Z,52.9
2018-05-13T09:57:07.469Z,52.2
2018-05-13T09:58:06.676Z,52.7
2018-05-13T09:59:06.103Z,52.9
2018-05-13T10:00:05.420Z,52.9
2018-05-13T10:01:04.640Z,52.3
2018-05-13T10:02:04.252Z,53.2
2018-05-13T10:03:03.965Z,53.1
2018-05-13T10:04:03.406Z,52.8
2018-05-13T10:05:02.684Z,53.1
2018-05-13T10:06:01.894Z,52.9
2018-05-13T10:08:00.896Z,52
2018-05-13T10:08:31.424Z,52
2018-05-13T10:09:02.052Z,53.3
2018-05-13T10:09:32.965Z,53.3
2018-05-13T10:10:02.970Z,55.5
2018-05-13T10:10:33.615Z,55.5
2018-05-13T10:11:04.255Z,51.6
2018-05-13T10:11:34.574Z,51.6
2018-05-13T10:12:57.913Z,52.3
2018-05-13T10:13:57.735Z,51.6
2018-05-13T10:14:57.051Z,51.5
2018-05-13T10:15:56.260Z,51.6
2018-05-13T10:16:55.975Z,50.9
2018-05-13T10:17:54.979Z,49.1
2018-05-13T10:18:54.606Z,49.3
2018-05-13T10:19:25.180Z,49.3
2018-05-13T10:19:55.455Z,50.3
2018-05-13T10:20:26.078Z,50.3
2018-05-13T10:20:56.617Z,50.1
2018-05-13T10:21:27.153Z,50.1
2018-05-13T10:21:57.791Z,49.8
2018-05-13T10:22:28.420Z,49.8
2018-05-13T10:23:52.069Z,49.2
2018-05-13T10:24:51.379Z,49.1
2018-05-13T10:25:50.901Z,50.2
2018-05-13T10:26:50.410Z,50
2018-05-13T10:27:49.623Z,48.5
2018-05-13T10:28:49.212Z,48
2018-05-13T10:29:48.840Z,49
2018-05-13T10:30:48.162Z,48.8
2018-05-13T10:31:47.582Z,49.2
2018-05-13T10:32:46.787Z,49.6
2018-05-13T10:33:46.608Z,49.7
2018-05-13T10:34:46.037Z,45.9
2018-05-13T10:36:44.750Z,47.7
2018-05-13T10:37:44.364Z,48
2018-05-13T10:38:43.461Z,48.1
2018-05-13T10:39:43.075Z,48.6
2018-05-13T10:40:42.291Z,45.9
2018-05-13T10:41:13.020Z,45.9
2018-05-13T10:41:43.553Z,47.3
2018-05-13T10:42:41.375Z,47.4
2018-05-13T10:43:41.095Z,47.3
2018-05-13T10:44:40.616Z,48.2
2018-05-13T10:45:40.043Z,48
2018-05-13T10:46:39.146Z,48.9
2018-05-13T10:47:39.072Z,48.6
2018-05-13T10:48:38.410Z,48.4
2018-05-13T10:49:37.731Z,48.5
2018-05-13T10:50:37.442Z,48.4
2018-05-13T10:51:36.762Z,48
2018-05-13T10:52:07.284Z,48
2018-05-13T10:54:35.175Z,48.1
2018-05-13T10:55:34.394Z,47
2018-05-13T10:57:33.477Z,46.9
2018-05-13T10:58:33.082Z,46.7
2018-05-13T11:01:31.474Z,48
2018-05-13T11:02:30.696Z,46.8
2018-05-13T11:03:01.116Z,46.8
2018-05-13T11:04:29.930Z,48.5
2018-05-13T11:10:26.587Z,47.7
2018-05-13T11:11:26.408Z,47.9
2018-05-13T11:12:25.624Z,48
2018-05-13T11:13:24.937Z,47.6
2018-05-13T11:15:24.151Z,47.8
2018-05-13T11:16:23.974Z,49.4
2018-05-13T11:17:23.401Z,48.5
2018-05-13T11:18:22.609Z,49.5
2018-05-13T11:19:22.328Z,48.3
2018-05-13T11:21:20.930Z,50
2018-05-13T11:22:20.760Z,50.1
2018-05-13T11:23:20.190Z,48.7
2018-05-13T11:24:20.012Z,47
2018-05-13T11:25:19.221Z,48.6
2018-05-13T11:26:18.546Z,48.6
2018-05-13T11:27:18.375Z,48.6
2018-05-13T11:30:16.753Z,47.2
2018-05-13T11:31:16.316Z,49.1
2018-05-13T11:32:15.638Z,48.5
2018-05-13T11:33:15.561Z,47.9
2018-05-13T11:34:14.661Z,48.2
2018-05-13T11:36:13.875Z,48.9
2018-05-13T11:37:13.211Z,47
2018-05-13T11:38:12.919Z,47.8
2018-05-13T11:40:11.920Z,47.8
2018-05-13T11:41:11.652Z,47.1
2018-05-13T11:42:11.264Z,47.9
2018-05-13T11:44:09.864Z,47.7
2018-05-13T11:49:07.848Z,43.3
2018-05-13T12:01:02.633Z,43
2018-05-13T12:01:33.049Z,43
2018-05-13T12:02:03.488Z,41.7
2018-05-13T12:02:34.082Z,41.7
2018-05-13T12:04:01.088Z,41.4
2018-05-13T12:04:31.330Z,41.4
2018-05-13T12:05:01.567Z,40.5
2018-05-13T12:08:59.357Z,40.1
2018-05-13T12:11:57.859Z,39.3
2018-05-13T12:13:56.965Z,40.7
2018-05-13T12:40:46.538Z,33.7
2018-05-13T13:08:36.802Z,31
2018-05-13T13:09:36.734Z,31.3
2018-05-13T13:33:29.042Z,26.3
2018-05-13T13:35:28.367Z,26
2018-05-13T13:38:27.583Z,28.4
2018-05-13T13:40:26.796Z,25.2
2018-05-13T13:42:26.016Z,24.8
2018-05-13T13:44:25.521Z,26.5
2018-05-13T13:46:24.857Z,24.5
2018-05-13T13:46:55.094Z,24.5
2018-05-13T13:48:24.721Z,22.8
2018-05-13T13:48:55.243Z,22.8
2018-05-13T13:49:25.773Z,22.8
2018-05-13T13:49:55.974Z,22.8
2018-05-13T13:50:26.705Z,25.6
2018-05-13T13:51:23.701Z,24.6
2018-05-13T13:55:22.702Z,23.2
2018-05-13T13:56:22.193Z,25.4
2018-05-13T13:59:21.381Z,23.1
2018-05-13T14:00:21.519Z,24.8
2018-05-13T14:02:20.627Z,23.3
2018-05-13T14:03:20.325Z,24.7
2018-05-13T14:06:20.131Z,21.1
2018-05-13T14:08:19.273Z,23.5
2018-05-13T14:08:49.794Z,23.5
2018-05-13T14:10:18.708Z,19.4
2018-05-13T14:11:18.548Z,22.9
2018-05-13T14:12:18.261Z,22.3
2018-05-13T14:14:17.977Z,21.6
2018-05-13T14:15:17.412Z,19.2
2018-05-13T14:16:17.641Z,19.9
2018-05-13T14:17:17.047Z,19
2018-05-13T14:18:16.992Z,21
2018-05-13T14:19:16.709Z,25.6
2018-05-13T14:20:16.726Z,23
2018-05-13T14:20:47.131Z,23
2018-05-13T14:22:16.035Z,21.8
2018-05-13T14:22:46.273Z,21.8
2018-05-13T14:23:16.908Z,22.6
2018-05-13T14:23:47.580Z,22.6
2018-05-13T14:25:15.379Z,23
2018-05-13T14:26:15.205Z,21.8
2018-05-13T14:28:14.523Z,23.4
2018-05-13T14:29:14.264Z,23.1
2018-05-13T14:30:14.086Z,22.9
2018-05-13T14:32:13.594Z,22.6
2018-05-13T14:32:43.824Z,22.6
2018-05-13T14:33:14.477Z,21.9
2018-05-13T14:33:44.904Z,21.9
2018-05-13T14:34:15.326Z,21.5
2018-05-13T14:34:45.855Z,21.5
2018-05-13T14:35:16.387Z,25.6
2018-05-13T14:35:47.019Z,25.6
2018-05-13T14:38:12.291Z,23.8
2018-05-13T14:39:12.695Z,20.6
2018-05-13T14:41:12.181Z,21.5
2018-05-13T14:42:11.435Z,23
2018-05-13T14:43:11.418Z,21
2018-05-13T14:44:11.243Z,21.3
2018-05-13T14:45:11.111Z,22
2018-05-13T14:46:10.838Z,20.6
2018-05-13T14:47:10.776Z,23.3
2018-05-13T14:50:09.987Z,22.4
2018-05-13T14:53:09.081Z,23.9
2018-05-13T14:54:09.193Z,22.4
2018-05-13T14:55:08.508Z,21.3
2018-05-13T14:56:08.743Z,20.9
2018-05-13T14:58:08.437Z,21.7
2018-05-13T14:59:07.687Z,24.4
2018-05-13T15:00:07.400Z,22
2018-05-13T15:01:07.116Z,23.5
2018-05-13T15:02:06.929Z,24.3
2018-05-13T15:03:06.540Z,22.8
2018-05-13T15:04:06.862Z,22.7
2018-05-13T15:05:06.716Z,22
2018-05-13T15:06:05.945Z,22.4
2018-05-13T15:07:05.672Z,23.2
2018-05-13T15:08:05.889Z,22.9
2018-05-13T15:08:36.417Z,22.9
2018-05-13T15:09:06.657Z,23.1
2018-05-13T15:11:05.034Z,23.5
2018-05-13T15:12:04.748Z,24.4
2018-05-13T15:13:04.250Z,23
2018-05-13T15:15:03.976Z,23.2
2018-05-13T15:16:03.801Z,22.7
2018-05-13T15:17:03.407Z,24.8
2018-05-13T15:18:03.341Z,24.2